x

Fred Howard Park, Fl (fhpf1) Weather Station

5:54am - Fri 20th Jan 2017 All times are EST. -5 hours from GMT.

  • Wind
    7mph, 8mph gusts
  • Air Temp 68°f
  • Sea Pressure 1014.6mb
  • Fred Howard Park, Fl
  • Fred Howard Park, Fl

More Historic Weather Station data

Upgrade to MSW Pro to gain access to the past 30 days of data for over 8000 Wavebouys and Weather Stations around the globe.

Join Pro

Comparision Forecast

View Surf forecast
   
Fri 01/20 5:54am 7 8 mph 1014.6mb 68f
5:48am 8 10 mph 1014.6mb 69f
4:54am 9 10 mph 1014.4mb 69f
4:48am 9 10 mph 1014.3mb 69f
3:54am 13 15 mph 1014.3mb 69f
3:48am 13 15 mph 1014.3mb 69f
2:54am 10 11 mph 1014.9mb 69f
2:48am 10 13 mph 1014.9mb 68f
1:54am 13 15 mph 1014.8mb 69f
1:48am 14 15 mph 1014.9mb 69f
12:54am 15 17 mph 1014.6mb 69f
12:48am 15 20 mph 1014.6mb 69f
Thu 01/19 11:54pm 14 16 mph 1015mb 70f
11:48pm 14 16 mph 1015mb 70f
10:54pm 11 14 mph 1015mb 70f
10:48pm 10 13 mph 1015.1mb 70f
9:54pm 10 11 mph 1015.2mb 69f
9:48pm 10 11 mph 1015.2mb 69f
8:54pm 9 10 mph 1014.9mb 69f
8:48pm 9 10 mph 1014.9mb 69f
7:54pm 9 11 mph 1015.1mb 70f
7:48pm 11 14 mph 1015.2mb 70f
6:54pm 10 13 mph 1015.3mb 69f
6:48pm 10 11 mph 1015.2mb 69f
5:54pm 9 11 mph 1015.4mb 69f
5:48pm 9 11 mph 1015.4mb 69f
4:54pm 11 14 mph 1015.6mb 69f
4:48pm 11 14 mph 1015.6mb 69f
3:54pm 11 13 mph 1015.7mb 68f
3:48pm 11 13 mph 1015.7mb 68f
2:54pm 11 14 mph 1015.7mb 69f
2:48pm 10 13 mph 1015.8mb 69f
1:54pm 11 13 mph 1016.3mb 69f
1:48pm 10 13 mph 1016.4mb 69f
12:54pm 11 13 mph 1017.1mb 69f
12:48pm 9 11 mph 1017.1mb 69f
11:54am 6
mph
1018.3mb 69f
11:48am 6
mph
1018.4mb 69f
10:54am 6
mph
1019.2mb 69f
10:48am 6
mph
1019.2mb 69f
9:54am 7 8 mph 1019.2mb 67f
9:48am 7 8 mph 1019.1mb 67f
8:54am 5
mph
1018.8mb 66f
8:48am 5
mph
1018.8mb 66f
7:54am 5 6 mph 1018.4mb 66f
7:48am 2 5 mph 1018.3mb 65f
6:54am  -  1 mph 1018.3mb 65f
6:48am  -  mph 1018.3mb 65f
5:54am  -  1 mph 1018mb 65f
5:48am 1
mph
1018.1mb 65f
4:54am 1 2 mph 1018.1mb 65f
4:48am 1 2 mph 1018.1mb 65f
3:54am 2 3 mph 1018.1mb 65f
3:48am 2 3 mph 1018.2mb 65f
2:54am  -  mph 1018.7mb 68f
2:48am  -  mph 1018.8mb 68f
1:54am  -  1 mph 1019.1mb 67f
1:48am  -  1 mph 1019.2mb 67f
12:54am  -  1 mph 1019.3mb 68f
12:48am  -  1 mph 1019.2mb 68f
Wed 01/18 10:54pm 3 5 mph 1020.2mb 68f
10:48pm 5 6 mph 1020.3mb 68f
9:54pm 7 8 mph 1020.5mb 68f
9:48pm 7 8 mph 1020.5mb 68f
8:54pm 5 6 mph 1020.4mb 68f
8:48pm 5
mph
1020.4mb 69f
7:54pm 5 6 mph 1020.5mb 68f
7:48pm 2 3 mph 1020.6mb 68f
6:54pm 3 5 mph 1020.3mb 68f
6:48pm 3 5 mph 1020.3mb 68f
4:54pm 6 7 mph 1020.1mb 69f
4:48pm 6
mph
1020.1mb 70f
3:54pm 7 8 mph 1020.2mb 70f
3:48pm 7 8 mph 1020.2mb 70f
2:54pm 5 6 mph 1020.3mb 70f
2:48pm 5 6 mph 1020.3mb 70f
1:54pm 6 7 mph 1020.9mb 70f
1:48pm 6 7 mph 1021mb 70f
12:54pm 2 3 mph 1021.6mb 72f
12:48pm 3
mph
1021.8mb 72f
11:54am  -  1 mph 1022.8mb 74f
11:48am  -  1 mph 1022.9mb 74f
10:54am  -  mph 1023.6mb 75f
10:48am  -  mph 1023.5mb 75f
9:54am  -  mph 1023.2mb 70f
9:48am  -  mph 1023.1mb 70f
8:54am 2 3 mph 1022.8mb 66f
8:48am 2
mph
1022.7mb 66f
7:54am  -  1 mph 1022.4mb 64f
7:48am  -  1 mph 1022.3mb 64f
6:54am  -  mph 1022.2mb 65f
6:48am  -  1 mph 1022.2mb 65f
5:54am 5 7 mph 1021.8mb 64f
5:48am 6 7 mph 1021.7mb 64f
4:54am 7 8 mph 1021.4mb 64f
4:48am 7
mph
1021.6mb 64f
3:54am 2 3 mph 1022.1mb 64f
3:48am 2 3 mph 1022.1mb 64f
2:54am 7 8 mph 1022mb 64f
2:48am 6 8 mph 1022.1mb 64f
1:54am 9 10 mph 1022.5mb 64f
1:48am 9 10 mph 1022.5mb 64f
12:54am 7 8 mph 1023mb 64f
12:48am 6 8 mph 1023mb 64f
Tue 01/17 11:54pm 7 8 mph 1023.4mb 65f
11:48pm 6 7 mph 1023.5mb 65f
10:54pm 7
mph
1023.9mb 66f
10:48pm 7 8 mph 1024mb 66f
9:54pm 5 6 mph 1024.2mb 66f
9:48pm 6 7 mph 1024.1mb 66f
8:54pm 3 5 mph 1024.1mb 67f
8:48pm 3 5 mph 1024.1mb 67f
7:54pm 2
mph
1023.6mb 69f
7:48pm 2 3 mph 1023.5mb 69f
6:54pm 3 5 mph 1022.8mb 69f
6:48pm 3 5 mph 1022.7mb 68f
5:54pm 6 7 mph 1022.5mb 68f
5:48pm 6 7 mph 1022.5mb 69f
4:54pm 6
mph
1022.7mb 70f
4:48pm 6
mph
1022.6mb 70f
3:54pm 6 7 mph 1022.6mb 72f
3:48pm 6 7 mph 1022.6mb 72f
2:54pm 6 7 mph 1022.6mb 71f
2:48pm 5 7 mph 1022.7mb 71f
1:54pm 5
mph
1022.8mb 71f
1:48pm 5 6 mph 1022.8mb 71f
12:54pm 8 9 mph 1023.3mb 71f
12:48pm 8 9 mph 1023.4mb 71f
11:54am 7 8 mph 1024.1mb 72f
11:48am 10 13 mph 1024.2mb 73f